Time,TemperatureF,DewpointF,PressureIn,WindDirection,WindDirectionDegrees,WindSpeedMPH,WindSpeedGustMPH,Humidity,HourlyPrecipIn,Conditions,Clouds,dailyrainin,SolarRadiationWatts/m^2,SoftwareType,DateUTC
2013-04-08 00:09:00,41.1,36.6,29.94,SW,223,6.0,14.0,84,0.00,,CLR,0.00,0.00,VWS V14.01,2013-04-08 04:09:00,
2013-04-08 00:19:00,41.1,36.6,29.93,SSW,209,7.0,14.0,84,0.00,,CLR,0.00,0.00,VWS V14.01,2013-04-08 04:19:00,
2013-04-08 00:29:00,41.3,36.8,29.93,SSW,213,6.0,15.0,84,0.00,,CLR,0.00,0.00,VWS V14.01,2013-04-08 04:29:00,
2013-04-08 00:39:00,41.3,36.8,29.93,SW,221,8.0,18.0,84,0.00,,CLR,0.00,0.00,VWS V14.01,2013-04-08 04:39:00,
2013-04-08 00:49:00,41.4,36.9,29.93,SSW,205,7.0,20.0,84,0.00,,CLR,0.00,0.00,VWS V14.01,2013-04-08 04:49:00,
2013-04-08 00:59:00,41.2,36.7,29.93,WSW,239,5.0,16.0,84,0.00,,CLR,0.00,0.00,VWS V14.01,2013-04-08 04:59:00,
2013-04-08 01:09:00,41.1,36.9,29.93,SW,225,10.0,14.0,85,0.00,,CLR,0.00,0.00,VWS V14.01,2013-04-08 05:09:00,
2013-04-08 01:19:00,41.2,37.0,29.92,SW,219,6.0,14.0,85,0.00,,CLR,0.00,0.00,VWS V14.01,2013-04-08 05:19:00,
2013-04-08 01:29:00,40.9,36.8,29.92,SW,214,9.0,15.0,85,0.00,,CLR,0.00,0.00,VWS V14.01,2013-04-08 05:29:00,
2013-04-08 01:39:00,40.9,37.0,29.92,SW,230,3.0,16.0,86,0.00,,CLR,0.00,0.00,VWS V14.01,2013-04-08 05:39:00,
2013-04-08 01:49:00,40.8,36.9,29.92,SW,215,6.0,12.0,86,0.00,,SCT110,0.00,0.00,VWS V14.01,2013-04-08 05:49:00,
2013-04-08 01:59:00,40.7,36.8,29.92,WSW,246,2.0,11.0,86,0.00,,SCT110,0.00,0.00,VWS V14.01,2013-04-08 05:59:00,
2013-04-08 02:09:00,40.5,36.7,29.92,WSW,240,3.0,8.0,86,0.00,,SCT110,0.00,0.00,VWS V14.01,2013-04-08 06:09:00,
2013-04-08 02:19:00,40.2,36.7,29.92,WSW,242,1.0,9.0,87,0.00,,SCT110,0.00,0.00,VWS V14.01,2013-04-08 06:19:00,
2013-04-08 02:29:00,39.9,36.3,29.92,SW,231,2.0,6.0,87,0.00,,SCT110,0.00,0.00,VWS V14.01,2013-04-08 06:29:00,
2013-04-08 02:39:00,39.7,36.4,29.92,WSW,241,0.0,6.0,88,0.00,,SCT110,0.00,0.00,VWS V14.01,2013-04-08 06:39:00,
2013-04-08 02:49:00,39.5,36.2,29.92,WSW,249,0.0,7.0,88,0.00,,CLR,0.00,0.00,VWS V14.01,2013-04-08 06:49:00,
2013-04-08 02:59:00,39.2,36.2,29.91,WSW,245,2.0,6.0,89,0.00,,CLR,0.00,0.00,VWS V14.01,2013-04-08 06:59:00,
2013-04-08 03:09:00,39.0,36.0,29.91,WSW,245,0.0,5.0,89,0.00,,CLR,0.00,0.00,VWS V14.01,2013-04-08 07:09:00,
2013-04-08 03:19:00,38.7,36.0,29.91,WSW,245,0.0,6.0,90,0.00,,CLR,0.00,0.00,VWS V14.01,2013-04-08 07:19:00,
2013-04-08 03:29:00,38.7,36.0,29.92,WSW,245,1.0,4.0,90,0.00,,CLR,0.00,0.00,VWS V14.01,2013-04-08 07:29:00,
2013-04-08 03:39:00,38.7,36.0,29.92,West,281,4.0,4.0,90,0.00,,CLR,0.00,0.00,VWS V14.01,2013-04-08 07:39:00,
2013-04-08 03:49:00,39.1,36.4,29.92,West,267,3.0,6.0,90,0.00,,CLR,0.00,0.00,VWS V14.01,2013-04-08 07:49:00,
2013-04-08 03:59:00,39.1,36.1,29.92,WSW,244,0.0,7.0,89,0.00,,CLR,0.00,0.00,VWS V14.01,2013-04-08 07:59:00,
2013-04-08 04:09:00,38.9,35.9,29.92,WSW,242,0.0,5.0,89,0.00,,CLR,0.00,0.00,VWS V14.01,2013-04-08 08:09:00,
2013-04-08 04:19:00,39.2,36.2,29.92,WSW,247,1.0,6.0,89,0.00,,CLR,0.00,0.00,VWS V14.01,2013-04-08 08:19:00,
2013-04-08 04:29:00,39.6,36.3,29.92,WSW,242,3.0,6.0,88,0.00,,CLR,0.00,0.00,VWS V14.01,2013-04-08 08:29:00,
2013-04-08 04:39:00,39.8,36.2,29.92,WSW,252,0.0,7.0,87,0.00,,CLR,0.00,0.00,VWS V14.01,2013-04-08 08:39:00,
2013-04-08 04:49:00,40.0,36.5,29.92,West,279,5.0,7.0,87,0.00,,CLR,0.00,0.00,VWS V14.01,2013-04-08 08:49:00,
2013-04-08 04:59:00,40.1,36.3,29.92,WSW,252,3.0,6.0,86,0.00,,CLR,0.00,0.00,VWS V14.01,2013-04-08 08:59:00,
2013-04-08 05:09:00,39.9,36.1,29.92,WSW,245,0.0,7.0,86,0.00,,CLR,0.00,0.00,VWS V14.01,2013-04-08 09:09:00,
2013-04-08 05:19:00,39.7,35.9,29.93,WSW,248,5.0,7.0,86,0.00,,CLR,0.00,0.00,VWS V14.01,2013-04-08 09:19:00,
2013-04-08 05:29:00,39.8,36.0,29.93,West,272,3.0,6.0,86,0.00,,CLR,0.00,0.00,VWS V14.01,2013-04-08 09:29:00,
2013-04-08 05:39:00,40.2,36.3,29.94,West,271,4.0,7.0,86,0.00,,CLR,0.00,0.00,VWS V14.01,2013-04-08 09:39:00,
2013-04-08 05:49:00,40.1,36.0,29.93,WSW,244,3.0,10.0,85,0.00,,CLR,0.00,0.00,VWS V14.01,2013-04-08 09:49:00,
2013-04-08 05:59:00,39.5,35.7,29.94,West,276,2.0,8.0,86,0.00,,CLR,0.00,0.00,VWS V14.01,2013-04-08 09:59:00,
2013-04-08 06:09:00,39.5,35.7,29.95,West,267,9.0,12.0,86,0.00,,CLR,0.00,0.00,VWS V14.01,2013-04-08 10:09:00,
2013-04-08 06:19:00,40.3,35.9,29.95,WSW,257,4.0,13.0,84,0.00,,CLR,0.00,9.00,VWS V14.01,2013-04-08 10:19:00,
2013-04-08 06:29:00,40.1,35.4,29.95,WNW,300,0.0,11.0,83,0.00,,CLR,0.00,19.00,VWS V14.01,2013-04-08 10:29:00,
2013-04-08 06:39:00,39.9,35.5,29.96,WSW,246,0.0,6.0,84,0.00,,CLR,0.00,37.00,VWS V14.01,2013-04-08 10:39:00,
2013-04-08 06:49:00,40.1,35.4,29.96,WSW,249,0.0,6.0,83,0.00,,CLR,0.00,54.00,VWS V14.01,2013-04-08 10:49:00,
2013-04-08 06:59:00,40.4,35.3,29.97,West,277,0.0,6.0,82,0.00,,CLR,0.00,76.00,VWS V14.01,2013-04-08 10:59:00,
2013-04-08 07:09:00,40.5,35.1,29.97,West,275,9.0,11.0,81,0.00,,CLR,0.00,72.00,VWS V14.01,2013-04-08 11:09:00,
2013-04-08 07:19:00,40.7,35.0,29.97,WNW,287,7.0,11.0,80,0.00,,CLR,0.00,107.00,VWS V14.01,2013-04-08 11:19:00,
2013-04-08 07:29:00,41.1,35.1,29.98,WSW,253,3.0,12.0,79,0.00,,CLR,0.00,146.00,VWS V14.01,2013-04-08 11:29:00,
2013-04-08 07:39:00,41.7,35.4,29.97,NW,306,8.0,13.0,78,0.00,,CLR,0.00,169.00,VWS V14.01,2013-04-08 11:39:00,
2013-04-08 07:49:00,42.4,35.4,29.97,NW,307,3.0,11.0,76,0.00,,CLR,0.00,220.00,VWS V14.01,2013-04-08 11:49:00,
2013-04-08 07:59:00,43.1,35.7,29.99,West,260,5.0,9.0,75,0.00,,CLR,0.00,234.00,VWS V14.01,2013-04-08 11:59:00,
2013-04-08 08:09:00,43.3,34.9,29.98,West,272,9.0,13.0,72,0.00,,CLR,0.00,258.00,VWS V14.01,2013-04-08 12:09:00,
2013-04-08 08:19:00,43.1,34.7,29.99,WNW,298,6.0,12.0,72,0.00,,CLR,0.00,178.00,VWS V14.01,2013-04-08 12:19:00,
2013-04-08 08:29:00,43.3,34.2,29.99,WNW,291,6.0,9.0,70,0.00,,CLR,0.00,258.00,VWS V14.01,2013-04-08 12:29:00,
2013-04-08 08:39:00,43.1,34.0,29.99,NW,322,7.0,14.0,70,0.00,,CLR,0.00,246.00,VWS V14.01,2013-04-08 12:39:00,
2013-04-08 08:49:00,43.2,33.4,29.99,WNW,296,10.0,15.0,68,0.00,,CLR,0.00,281.00,VWS V14.01,2013-04-08 12:49:00,
2013-04-08 08:59:00,43.0,33.2,29.99,WNW,300,3.0,17.0,68,0.00,,FEW050,0.00,234.00,VWS V14.01,2013-04-08 12:59:00,
2013-04-08 09:09:00,43.0,33.2,29.99,WNW,295,4.0,13.0,68,0.00,,FEW050,0.00,232.00,VWS V14.01,2013-04-08 13:09:00,
2013-04-08 09:19:00,43.1,33.3,29.99,WNW,297,4.0,12.0,68,0.00,,FEW050,0.00,255.00,VWS V14.01,2013-04-08 13:19:00,
2013-04-08 09:29:00,43.3,33.1,29.99,NW,318,12.0,15.0,67,0.00,,FEW050,0.00,274.00,VWS V14.01,2013-04-08 13:29:00,
2013-04-08 09:39:00,43.1,32.9,30.00,NW,313,8.0,17.0,67,0.00,,FEW050,0.00,283.00,VWS V14.01,2013-04-08 13:39:00,
2013-04-08 09:49:00,43.1,32.9,30.01,WNW,287,2.0,13.0,67,0.00,,FEW050,0.00,320.00,VWS V14.01,2013-04-08 13:49:00,
2013-04-08 09:59:00,43.2,32.6,30.01,NW,312,11.0,13.0,66,0.00,,FEW050,0.00,325.00,VWS V14.01,2013-04-08 13:59:00,
2013-04-08 10:09:00,43.1,32.5,30.02,NW,312,7.0,13.0,66,0.00,,FEW050,0.00,287.00,VWS V14.01,2013-04-08 14:09:00,
2013-04-08 10:19:00,43.2,32.6,30.02,NNW,330,15.0,15.0,66,0.00,,FEW050,0.00,429.00,VWS V14.01,2013-04-08 14:19:00,
2013-04-08 10:29:00,43.6,33.4,30.02,NW,315,11.0,15.0,67,0.00,,FEW050,0.00,684.00,VWS V14.01,2013-04-08 14:29:00,
2013-04-08 10:39:00,43.9,33.3,30.03,WNW,285,3.0,15.0,66,0.00,,FEW050,0.00,445.00,VWS V14.01,2013-04-08 14:39:00,
2013-04-08 10:49:00,44.3,32.9,30.02,NW,324,8.0,14.0,64,0.00,,FEW050,0.00,529.00,VWS V14.01,2013-04-08 14:49:00,
2013-04-08 10:59:00,44.9,33.1,30.03,NW,315,6.0,13.0,63,0.00,,FEW050,0.00,399.00,VWS V14.01,2013-04-08 14:59:00,
2013-04-08 11:09:00,45.1,33.3,30.04,West,268,10.0,14.0,63,0.00,,FEW050,0.00,529.00,VWS V14.01,2013-04-08 15:09:00,
2013-04-08 11:19:00,45.3,33.1,30.04,NW,315,8.0,18.0,62,0.00,,FEW050,0.00,621.00,VWS V14.01,2013-04-08 15:19:00,
2013-04-08 11:29:00,45.9,32.8,30.04,WNW,300,6.0,16.0,60,0.00,,FEW050,0.00,731.00,VWS V14.01,2013-04-08 15:29:00,
2013-04-08 11:39:00,46.1,33.4,30.04,WNW,288,14.0,15.0,61,0.00,,FEW050,0.00,816.00,VWS V14.01,2013-04-08 15:39:00,
2013-04-08 11:49:00,46.9,33.3,30.04,NW,323,10.0,15.0,59,0.00,,FEW050,0.00,840.00,VWS V14.01,2013-04-08 15:49:00,
2013-04-08 11:59:00,48.1,33.2,30.04,NW,325,9.0,12.0,56,0.00,,CLR,0.00,846.00,VWS V14.01,2013-04-08 15:59:00,
2013-04-08 12:09:00,48.1,33.2,30.04,NNW,346,9.0,14.0,56,0.00,,CLR,0.00,854.00,VWS V14.01,2013-04-08 16:09:00,
2013-04-08 12:19:00,48.4,33.4,30.03,WNW,284,5.0,13.0,56,0.00,,CLR,0.00,861.00,VWS V14.01,2013-04-08 16:19:00,
2013-04-08 12:29:00,48.5,33.1,30.03,NNW,347,3.0,13.0,55,0.00,,CLR,0.00,867.00,VWS V14.01,2013-04-08 16:29:00,
2013-04-08 12:39:00,49.1,33.7,30.03,NW,321,9.0,13.0,55,0.00,,CLR,0.00,868.00,VWS V14.01,2013-04-08 16:39:00,
2013-04-08 12:49:00,49.2,32.8,30.02,WNW,302,6.0,14.0,53,0.00,,CLR,0.00,870.00,VWS V14.01,2013-04-08 16:49:00,
2013-04-08 12:59:00,50.1,33.7,30.03,NW,316,7.0,11.0,53,0.00,,CLR,0.00,870.00,VWS V14.01,2013-04-08 16:59:00,
2013-04-08 13:09:00,50.6,34.6,30.03,West,279,0.0,10.0,54,0.00,,CLR,0.00,861.00,VWS V14.01,2013-04-08 17:09:00,
2013-04-08 13:19:00,50.6,33.2,30.03,NW,305,1.0,11.0,51,0.00,,CLR,0.00,858.00,VWS V14.01,2013-04-08 17:19:00,
2013-04-08 13:29:00,51.9,33.9,30.03,WNW,296,3.0,6.0,50,0.00,,CLR,0.00,853.00,VWS V14.01,2013-04-08 17:29:00,
2013-04-08 13:39:00,52.1,33.0,30.03,NW,323,0.0,8.0,48,0.00,,CLR,0.00,849.00,VWS V14.01,2013-04-08 17:39:00,
2013-04-08 13:49:00,53.1,32.9,30.03,WSW,244,0.0,9.0,46,0.00,,CLR,0.00,840.00,VWS V14.01,2013-04-08 17:49:00,
2013-04-08 13:59:00,54.6,32.6,30.03,WSW,246,7.0,8.0,43,0.00,,CLR,0.00,826.00,VWS V14.01,2013-04-08 17:59:00,
2013-04-08 14:09:00,53.6,31.7,30.03,WNW,294,2.0,12.0,43,0.00,,CLR,0.00,816.00,VWS V14.01,2013-04-08 18:09:00,
2013-04-08 14:19:00,53.6,32.2,30.03,NW,307,0.0,9.0,44,0.00,,CLR,0.00,802.00,VWS V14.01,2013-04-08 18:19:00,
2013-04-08 14:29:00,54.8,32.2,30.02,NW,307,5.0,9.0,42,0.00,,CLR,0.00,788.00,VWS V14.01,2013-04-08 18:29:00,
2013-04-08 14:39:00,55.0,32.3,30.02,NW,305,3.0,7.0,42,0.00,,CLR,0.00,766.00,VWS V14.01,2013-04-08 18:39:00,
2013-04-08 14:49:00,55.3,32.6,30.02,WNW,283,4.0,8.0,42,0.00,,CLR,0.00,752.00,VWS V14.01,2013-04-08 18:49:00,
2013-04-08 14:59:00,55.0,29.2,30.02,NNW,330,2.0,9.0,37,0.00,,CLR,0.00,731.00,VWS V14.01,2013-04-08 18:59:00,
2013-04-08 15:09:00,55.3,31.4,30.02,WNW,295,1.0,7.0,40,0.00,,CLR,0.00,712.00,VWS V14.01,2013-04-08 19:09:00,
2013-04-08 15:19:00,55.7,32.4,30.02,WSW,249,0.0,9.0,41,0.00,,CLR,0.00,691.00,VWS V14.01,2013-04-08 19:19:00,
2013-04-08 15:29:00,56.4,31.1,30.03,West,279,0.0,10.0,38,0.00,,CLR,0.00,663.00,VWS V14.01,2013-04-08 19:29:00,
2013-04-08 15:39:00,56.7,32.0,30.02,NW,309,0.0,6.0,39,0.00,,CLR,0.00,635.00,VWS V14.01,2013-04-08 19:39:00,
2013-04-08 15:49:00,56.8,30.8,30.03,West,259,3.0,8.0,37,0.00,,CLR,0.00,603.00,VWS V14.01,2013-04-08 19:49:00,
2013-04-08 15:59:00,57.1,31.1,30.02,WNW,301,4.0,11.0,37,0.00,,CLR,0.00,582.00,VWS V14.01,2013-04-08 19:59:00,
2013-04-08 16:09:00,56.7,30.1,30.01,WNW,303,0.0,6.0,36,0.00,,CLR,0.00,345.00,VWS V14.01,2013-04-08 20:09:00,
2013-04-08 16:19:00,56.6,30.0,30.02,WSW,258,0.0,6.0,36,0.00,,CLR,0.00,585.00,VWS V14.01,2013-04-08 20:19:00,
2013-04-08 16:29:00,58.1,30.6,30.01,West,277,1.0,5.0,35,0.00,,CLR,0.00,512.00,VWS V14.01,2013-04-08 20:29:00,
2013-04-08 16:39:00,57.6,30.9,30.01,WNW,298,5.0,8.0,36,0.00,,CLR,0.00,489.00,VWS V14.01,2013-04-08 20:39:00,
2013-04-08 16:49:00,56.8,29.5,30.01,WNW,300,3.0,6.0,35,0.00,,CLR,0.00,420.00,VWS V14.01,2013-04-08 20:49:00,
2013-04-08 16:59:00,57.1,30.4,30.01,NNW,348,4.0,6.0,36,0.00,,CLR,0.00,383.00,VWS V14.01,2013-04-08 20:59:00,
2013-04-08 17:09:00,57.2,29.8,30.01,NNW,341,0.0,5.0,35,0.00,,CLR,0.00,380.00,VWS V14.01,2013-04-08 21:09:00,
2013-04-08 17:19:00,57.1,29.0,30.01,WNW,302,2.0,4.0,34,0.00,,CLR,0.00,373.00,VWS V14.01,2013-04-08 21:19:00,
2013-04-08 17:29:00,56.9,28.8,30.00,NNW,337,1.0,4.0,34,0.00,,CLR,0.00,341.00,VWS V14.01,2013-04-08 21:29:00,
2013-04-08 17:39:00,56.9,29.5,30.00,NNW,337,0.0,2.0,35,0.00,,CLR,0.00,111.00,VWS V14.01,2013-04-08 21:39:00,
2013-04-08 17:49:00,56.5,29.2,30.00,NNW,337,0.0,2.0,35,0.00,,CLR,0.00,65.00,VWS V14.01,2013-04-08 21:49:00,
2013-04-08 17:59:00,56.3,28.3,30.00,NNW,337,0.0,0.0,34,0.00,,CLR,0.00,93.00,VWS V14.01,2013-04-08 21:59:00,
2013-04-08 18:09:00,55.7,29.9,30.00,NNW,346,0.0,2.0,37,0.00,,CLR,0.00,77.00,VWS V14.01,2013-04-08 22:09:00,
2013-04-08 18:19:00,55.6,29.8,30.01,East,92,1.0,3.0,37,0.00,,CLR,0.00,120.00,VWS V14.01,2013-04-08 22:19:00,
2013-04-08 18:29:00,55.4,29.6,30.02,East,92,0.0,2.0,37,0.00,,CLR,0.00,58.00,VWS V14.01,2013-04-08 22:29:00,
2013-04-08 18:39:00,54.8,29.0,30.02,East,92,0.0,1.0,37,0.00,,CLR,0.00,37.00,VWS V14.01,2013-04-08 22:39:00,
2013-04-08 18:59:00,53.9,28.9,30.02,East,92,0.0,1.0,38,0.00,,CLR,0.00,21.00,VWS V14.01,2013-04-08 22:59:00,
2013-04-08 19:09:00,53.6,29.3,30.02,East,92,0.0,2.0,39,0.00,,CLR,0.00,11.00,VWS V14.01,2013-04-08 23:09:00,
2013-04-08 19:19:00,53.2,28.9,30.03,East,92,0.0,1.0,39,0.00,,CLR,0.00,0.00,VWS V14.01,2013-04-08 23:19:00,
2013-04-08 19:29:00,52.9,28.6,30.03,East,91,0.0,2.0,39,0.00,,CLR,0.00,0.00,VWS V14.01,2013-04-08 23:29:00,
2013-04-08 19:39:00,53.0,28.7,30.03,East,91,0.0,2.0,39,0.00,,CLR,0.00,0.00,VWS V14.01,2013-04-08 23:39:00,
2013-04-08 19:49:00,53.0,28.1,30.03,East,91,0.0,1.0,38,0.00,,CLR,0.00,0.00,VWS V14.01,2013-04-08 23:49:00,
2013-04-08 19:59:00,52.7,28.5,30.02,East,83,0.0,3.0,39,0.00,,CLR,0.00,0.00,VWS V14.01,2013-04-08 23:59:00,
2013-04-08 20:09:00,52.2,28.6,30.03,East,87,2.0,4.0,40,0.00,,CLR,0.00,0.00,VWS V14.01,2013-04-09 00:09:00,
2013-04-08 20:19:00,51.8,28.3,30.04,East,84,1.0,3.0,40,0.00,,CLR,0.00,0.00,VWS V14.01,2013-04-09 00:19:00,
2013-04-08 20:29:00,51.7,28.2,30.04,East,85,1.0,2.0,40,0.00,,CLR,0.00,0.00,VWS V14.01,2013-04-09 00:29:00,
2013-04-08 20:39:00,51.7,28.2,30.04,East,85,1.0,2.0,40,0.00,,CLR,0.00,0.00,VWS V14.01,2013-04-09 00:39:00,
2013-04-08 20:49:00,51.5,28.6,30.04,East,80,0.0,3.0,41,0.00,,CLR,0.00,0.00,VWS V14.01,2013-04-09 00:49:00,
2013-04-08 20:59:00,51.5,28.0,30.05,East,80,1.0,3.0,40,0.00,,CLR,0.00,0.00,VWS V14.01,2013-04-09 00:59:00,
2013-04-08 21:09:00,51.6,28.1,30.05,East,94,1.0,5.0,40,0.00,,CLR,0.00,0.00,VWS V14.01,2013-04-09 01:09:00,
2013-04-08 21:19:00,51.4,27.9,30.05,East,95,3.0,3.0,40,0.00,,CLR,0.00,0.00,VWS V14.01,2013-04-09 01:19:00,
2013-04-08 21:29:00,51.5,28.0,30.05,East,95,6.0,6.0,40,0.00,,CLR,0.00,0.00,VWS V14.01,2013-04-09 01:29:00,
2013-04-08 21:39:00,51.4,27.9,30.05,East,96,2.0,6.0,40,0.00,,CLR,0.00,0.00,VWS V14.01,2013-04-09 01:39:00,
2013-04-08 21:49:00,50.8,28.0,30.05,East,94,8.0,9.0,41,0.00,,CLR,0.00,0.00,VWS V14.01,2013-04-09 01:49:00,
2013-04-08 21:59:00,49.5,28.5,30.05,East,80,6.0,8.0,44,0.00,,CLR,0.00,0.00,VWS V14.01,2013-04-09 01:59:00,
2013-04-08 22:09:00,48.5,29.7,30.04,ENE,78,3.0,9.0,48,0.00,,CLR,0.00,0.00,VWS V14.01,2013-04-09 02:09:00,
2013-04-08 22:19:00,47.8,31.5,30.04,ESE,115,3.0,9.0,53,0.00,,CLR,0.00,0.00,VWS V14.01,2013-04-09 02:19:00,
2013-04-08 22:29:00,47.1,31.8,30.04,ESE,106,1.0,7.0,55,0.00,,CLR,0.00,0.00,VWS V14.01,2013-04-09 02:29:00,
2013-04-08 22:39:00,46.7,32.7,30.04,ESE,109,3.0,7.0,58,0.00,,CLR,0.00,0.00,VWS V14.01,2013-04-09 02:39:00,
2013-04-08 22:49:00,46.2,33.1,30.04,ESE,103,4.0,8.0,60,0.00,,CLR,0.00,0.00,VWS V14.01,2013-04-09 02:49:00,
2013-04-08 22:59:00,46.0,33.3,30.03,ESE,109,4.0,9.0,61,0.00,,CLR,0.00,0.00,VWS V14.01,2013-04-09 02:59:00,
2013-04-08 23:09:00,45.9,33.6,30.04,ESE,103,3.0,6.0,62,0.00,,CLR,0.00,0.00,VWS V14.01,2013-04-09 03:09:00,
2013-04-08 23:19:00,45.6,34.1,30.03,ESE,104,8.0,9.0,64,0.00,,CLR,0.00,0.00,VWS V14.01,2013-04-09 03:19:00,
2013-04-08 23:29:00,45.5,34.0,30.03,ENE,74,5.0,10.0,64,0.00,,CLR,0.00,0.00,VWS V14.01,2013-04-09 03:29:00,
2013-04-08 23:39:00,45.2,33.8,30.03,East,96,5.0,9.0,64,0.00,,CLR,0.00,0.00,VWS V14.01,2013-04-09 03:39:00,
2013-04-08 23:49:00,45.0,34.0,30.03,East,95,2.0,7.0,65,0.00,,SCT100,0.00,0.00,VWS V14.01,2013-04-09 03:49:00,
2013-04-08 23:59:00,44.7,34.4,30.02,East,88,6.0,9.0,67,0.00,,SCT100,0.00,0.00,VWS V14.01,2013-04-09 03:59:00,